Time;durP1;ratioP1;P1;durP2;ratioP2;P2;SDS_P1;SDS_P2;PMS_P1;PMS_P2;Temp;Humidity;BMP_temperature;BMP_pressure;BME280_temperature;BME280_humidity;BME280_pressure;Samples;Min_cycle;Max_cycle;Signal;HPM_P1;HPM_P2
2022/10/20 00:02:22;;;;;;;16.75;9.55;;;;;;;9.55;100.00;101602.56;5040123;28;20013;-76
2022/10/20 00:04:47;;;;;;;17.92;9.02;;;;;;;9.50;100.00;101605.69;5038848;28;20363;-75
2022/10/20 00:07:13;;;;;;;16.05;9.32;;;;;;;9.48;100.00;101601.47;5038709;28;20041;-75
2022/10/20 00:09:38;;;;;;;20.95;9.52;;;;;;;9.50;100.00;101602.16;5039973;28;20420;-76
2022/10/20 00:12:04;;;;;;;26.35;9.40;;;;;;;9.53;100.00;101596.47;5040991;28;20025;-75
2022/10/20 00:14:29;;;;;;;23.25;9.27;;;;;;;9.40;100.00;101595.06;5039454;28;20033;-76
2022/10/20 00:16:55;;;;;;;24.42;11.05;;;;;;;9.41;100.00;101604.81;5038207;28;20075;-75
2022/10/20 00:19:20;;;;;;;20.58;9.60;;;;;;;9.38;100.00;101597.06;5036369;28;20025;-77
2022/10/20 00:21:45;;;;;;;20.35;9.45;;;;;;;9.33;100.00;101598.53;5037831;28;20168;-77
2022/10/20 00:24:10;;;;;;;21.08;10.07;;;;;;;9.43;100.00;101594.75;5038195;28;20039;-75
2022/10/20 00:26:36;;;;;;;16.73;11.02;;;;;;;9.41;100.00;101591.38;5035772;28;20048;-78
2022/10/20 00:29:02;;;;;;;19.10;10.40;;;;;;;9.38;100.00;101580.09;5015375;28;20044;-78
2022/10/20 00:31:28;;;;;;;24.40;9.65;;;;;;;9.42;100.00;101576.91;5011791;28;20484;-78
2022/10/20 00:33:56;;;;;;;18.95;9.85;;;;;;;9.36;100.00;101564.13;5015945;28;21320;-78
2022/10/20 00:36:21;;;;;;;;;;;;;;;9.38;100.00;101572.03;5033173;28;20427;-79
2022/10/20 00:38:47;;;;;;;21.45;11.15;;;;;;;9.37;100.00;101568.53;5031648;28;19924;-78
2022/10/20 00:41:14;;;;;;;32.25;10.27;;;;;;;9.37;100.00;101567.66;5033705;28;20029;-78
2022/10/20 00:43:43;;;;;;;24.65;11.00;;;;;;;9.31;100.00;101569.13;5033061;28;20061;-77
2022/10/20 00:46:11;;;;;;;22.83;11.10;;;;;;;9.32;100.00;101575.34;5036697;28;20021;-77
2022/10/20 00:48:36;;;;;;;25.20;10.50;;;;;;;9.31;100.00;101579.88;5035144;28;20044;-78
2022/10/20 00:51:02;;;;;;;27.75;11.00;;;;;;;9.28;100.00;101573.97;5038628;28;20026;-77
2022/10/20 00:53:28;;;;;;;23.52;11.63;;;;;;;9.32;100.00;101578.88;5040290;28;20032;-78
2022/10/20 00:55:57;;;;;;;29.40;11.80;;;;;;;9.31;100.00;101566.44;5051504;28;20041;-78
2022/10/20 00:58:23;;;;;;;21.70;10.60;;;;;;;9.34;100.00;101570.66;5051059;28;20089;-77
2022/10/20 01:00:51;;;;;;;17.30;11.55;;;;;;;9.28;100.00;101572.13;5053789;28;20029;-77
2022/10/20 01:03:23;;;;;;;24.92;12.23;;;;;;;9.28;100.00;101574.81;5037056;28;20065;-76
2022/10/20 01:05:48;;;;;;;24.65;11.75;;;;;;;9.26;100.00;101570.59;5036832;28;20021;-77
2022/10/20 01:08:13;;;;;;;25.55;12.45;;;;;;;9.33;100.00;101571.66;5035468;28;20056;-77
2022/10/20 01:10:56;;;;;;;26.52;12.27;;;;;;;9.30;100.00;101548.63;5035685;28;20128;-76
2022/10/20 01:13:32;;;;;;;24.40;11.70;;;;;;;9.38;100.00;101540.63;5035967;28;20432;-76
2022/10/20 01:16:19;;;;;;;25.30;12.23;;;;;;;9.35;100.00;101522.16;5038237;28;20121;-75
2022/10/20 01:18:53;;;;;;;27.25;12.25;;;;;;;9.31;100.00;101520.78;5039017;28;20033;-79
2022/10/20 01:21:41;;;;;;;35.40;13.05;;;;;;;9.28;100.00;101525.63;5036996;28;21266;-79
2022/10/20 01:24:38;;;;;;;24.27;13.23;;;;;;;9.26;100.00;101517.72;5037125;28;20099;-79
2022/10/20 01:27:29;;;;;;;27.30;13.02;;;;;;;9.32;100.00;101511.72;5036465;28;20088;-76
2022/10/20 01:30:16;;;;;;;25.35;12.75;;;;;;;9.29;100.00;101512.00;5036422;28;20044;-75
2022/10/20 01:33:06;;;;;;;29.85;12.48;;;;;;;9.31;100.00;101503.81;5034393;28;20056;-77
2022/10/20 01:35:42;;;;;;;30.98;12.90;;;;;;;9.30;100.00;101505.66;5022983;28;20352;-79
2022/10/20 01:38:11;;;;;;;30.77;12.98;;;;;;;9.21;100.00;101509.28;5033377;28;20044;-80
2022/10/20 01:40:50;;;;;;;25.48;13.15;;;;;;;9.19;100.00;101513.97;5035015;28;20048;-78
2022/10/20 01:43:18;;;;;;;32.40;13.93;;;;;;;9.20;100.00;101500.38;5036979;28;20090;-76
2022/10/20 01:45:45;;;;;;;28.45;13.57;;;;;;;9.25;100.00;101489.19;5037618;28;20061;-79
2022/10/20 01:48:12;;;;;;;35.95;14.02;;;;;;;9.31;100.00;101467.03;5036643;28;20029;-75
2022/10/20 01:50:39;;;;;;;36.05;14.98;;;;;;;9.28;100.00;101461.16;5034155;28;20140;-75
2022/10/20 01:53:04;;;;;;;29.25;13.38;;;;;;;9.26;100.00;101463.16;5033786;28;20081;-75
2022/10/20 01:55:29;;;;;;;29.67;14.82;;;;;;;9.25;100.00;101456.94;5038773;28;20060;-76
2022/10/20 01:58:16;;;;;;;33.97;14.40;;;;;;;9.26;100.00;101455.94;5042853;28;20025;-78
2022/10/20 02:00:43;;;;;;;29.70;13.38;;;;;;;9.25;100.00;101456.09;5036556;28;20022;-76
2022/10/20 02:03:12;;;;;;;31.17;13.93;;;;;;;9.25;100.00;101456.09;5034118;28;20034;-78
2022/10/20 02:08:35;;;;;;;26.02;12.80;;;;;;;9.19;100.00;101452.22;5048490;22;20065;-44
2022/10/20 02:11:03;;;;;;;34.13;14.65;;;;;;;9.20;100.00;101449.34;5001798;28;20113;-42
2022/10/20 02:13:29;;;;;;;27.42;13.57;;;;;;;9.20;100.00;101448.50;5012656;28;20033;-43
2022/10/20 02:15:56;;;;;;;30.95;14.48;;;;;;;9.21;100.00;101442.13;5011922;28;20083;-42
2022/10/20 02:18:29;;;;;;;28.83;14.05;;;;;;;9.20;100.00;101433.25;5011959;28;20061;-44
2022/10/20 02:20:57;;;;;;;33.70;14.60;;;;;;;9.22;100.00;101423.19;5012062;28;20045;-43
2022/10/20 02:23:22;;;;;;;32.38;14.77;;;;;;;9.21;100.00;101404.53;5013450;28;20022;-43
2022/10/20 02:25:50;;;;;;;31.85;14.50;;;;;;;9.17;100.00;101392.44;5012268;28;20053;-43
2022/10/20 02:28:16;;;;;;;27.88;14.93;;;;;;;9.17;100.00;101381.69;5011990;28;20037;-42
2022/10/20 02:30:42;;;;;;;29.85;15.65;;;;;;;9.14;100.00;101379.34;5013690;28;20034;-42
2022/10/20 02:33:08;;;;;;;32.83;15.70;;;;;;;9.18;100.00;101375.31;5012119;28;20034;-43
2022/10/20 02:35:33;;;;;;;31.10;15.23;;;;;;;9.12;100.00;101370.59;5012431;28;20409;-43
2022/10/20 02:37:59;;;;;;;34.42;14.98;;;;;;;9.13;100.00;101377.63;5013341;28;20038;-45
2022/10/20 02:40:25;;;;;;;32.88;16.30;;;;;;;9.15;100.00;101370.28;5013564;28;20442;-43
2022/10/20 02:42:51;;;;;;;34.50;16.23;;;;;;;9.13;100.00;101358.84;5013474;28;20038;-43
2022/10/20 02:45:16;;;;;;;33.80;15.98;;;;;;;9.14;100.00;101357.84;5013621;28;20025;-44
2022/10/20 02:47:41;;;;;;;39.50;16.75;;;;;;;9.11;100.00;101358.16;5013448;28;20038;-44
2022/10/20 02:50:07;;;;;;;34.50;16.55;;;;;;;9.08;100.00;101363.84;5013301;28;20037;-44
2022/10/20 02:52:33;;;;;;;35.80;16.70;;;;;;;9.15;100.00;101354.16;5013534;28;20080;-42
2022/10/20 02:54:58;;;;;;;38.05;16.33;;;;;;;9.15;100.00;101359.53;5013122;28;20025;-42
2022/10/20 02:57:24;;;;;;;40.40;16.48;;;;;;;9.08;100.00;101345.03;5012861;28;20084;-43
2022/10/20 02:59:49;;;;;;;41.95;16.95;;;;;;;9.09;100.00;101338.69;5011718;28;20030;-43
2022/10/20 03:02:14;;;;;;;37.85;17.30;;;;;;;9.16;100.00;101335.22;4995486;28;20041;-42
2022/10/20 03:04:40;;;;;;;44.60;17.23;;;;;;;9.17;100.00;101336.03;5012921;28;20030;-44
2022/10/20 03:07:05;;;;;;;45.40;17.10;;;;;;;9.14;100.00;101323.78;5012773;28;20026;-45
2022/10/20 03:09:31;;;;;;;37.25;16.55;;;;;;;9.14;100.00;101331.00;5012943;28;20050;-42
2022/10/20 03:11:56;;;;;;;37.50;17.67;;;;;;;9.17;100.00;101325.31;5012411;28;20022;-43
2022/10/20 03:14:21;;;;;;;39.80;17.08;;;;;;;9.19;100.00;101321.44;5012864;28;20025;-43
2022/10/20 03:16:47;;;;;;;39.85;16.98;;;;;;;9.21;100.00;101315.91;5010588;28;20054;-42
2022/10/20 03:19:12;;;;;;;45.13;17.15;;;;;;;9.19;100.00;101312.56;5012578;28;20038;-43
2022/10/20 03:21:37;;;;;;;38.08;17.52;;;;;;;9.24;100.00;101315.56;5012536;28;20352;-41
2022/10/20 03:24:03;;;;;;;37.63;17.90;;;;;;;9.20;100.00;101304.31;5012142;28;20041;-42
2022/10/20 03:26:28;;;;;;;42.33;18.00;;;;;;;9.16;100.00;101313.72;5011351;28;20042;-42
2022/10/20 03:28:54;;;;;;;44.35;17.95;;;;;;;9.17;100.00;101306.50;5009155;28;20034;-43
2022/10/20 03:31:19;;;;;;;42.65;18.95;;;;;;;9.20;100.00;101295.44;5010584;28;20030;-43
2022/10/20 03:33:44;;;;;;;44.38;17.77;;;;;;;9.16;100.00;101304.81;5011412;28;20041;-43
2022/10/20 03:36:10;;;;;;;44.67;19.15;;;;;;;9.11;100.00;101310.69;5010971;28;20493;-43
2022/10/20 03:38:35;;;;;;;45.90;19.02;;;;;;;9.12;100.00;101314.19;5010977;28;20508;-43
2022/10/20 03:41:01;;;;;;;36.20;19.00;;;;;;;9.15;100.00;101306.66;5011362;28;20499;-44
2022/10/20 03:43:26;;;;;;;43.78;18.90;;;;;;;9.16;100.00;101307.50;5010934;28;20029;-44
2022/10/20 03:46:03;;;;;;;46.55;18.95;;;;;;;9.11;100.00;101293.69;5011157;28;20034;-44
2022/10/20 03:48:28;;;;;;;43.92;18.38;;;;;;;9.21;100.00;101299.78;5008784;28;20030;-43
2022/10/20 03:50:54;;;;;;;43.80;19.50;;;;;;;9.11;100.00;101305.31;5010926;28;20038;-43
2022/10/20 03:53:19;;;;;;;44.83;19.05;;;;;;;9.13;100.00;101297.06;5010775;28;20523;-42
2022/10/20 03:55:44;;;;;;;49.65;19.88;;;;;;;9.17;100.00;101293.06;5010814;28;20100;-44
2022/10/20 03:58:10;;;;;;;53.50;20.95;;;;;;;9.16;100.00;101302.13;5011021;28;20065;-44
2022/10/20 04:00:35;;;;;;;46.58;18.40;;;;;;;9.14;100.00;101306.84;5009567;28;20113;-43
2022/10/20 04:03:00;;;;;;;43.35;19.63;;;;;;;9.18;100.00;101314.38;5008532;28;20216;-43
2022/10/20 04:05:26;;;;;;;43.60;19.88;;;;;;;9.15;100.00;101305.81;5008210;28;20083;-43
2022/10/20 04:07:51;;;;;;;44.58;19.58;;;;;;;9.13;100.00;101300.59;5007478;28;20206;-44
2022/10/20 04:10:17;;;;;;;48.65;19.88;;;;;;;9.10;100.00;101292.03;5007383;28;20032;-43
2022/10/20 04:12:42;;;;;;;48.13;20.63;;;;;;;9.12;100.00;101292.72;5007959;28;20033;-43
2022/10/20 04:15:08;;;;;;;49.72;20.65;;;;;;;9.15;100.00;101295.06;5006884;28;20033;-44
2022/10/20 04:17:35;;;;;;;41.05;19.52;;;;;;;9.11;100.00;101286.50;5006485;28;20694;-42
2022/10/20 04:20:01;;;;;;;41.88;20.23;;;;;;;9.13;100.00;101291.69;5007500;28;20041;-42
2022/10/20 04:22:26;;;;;;;36.35;19.48;;;;;;;9.18;100.00;101284.00;5006470;28;20137;-42
2022/10/20 04:24:52;;;;;;;47.05;20.83;;;;;;;9.15;100.00;101268.22;5007787;28;20042;-43
2022/10/20 04:27:17;;;;;;;47.75;20.77;;;;;;;9.25;100.00;101254.66;5008072;28;20128;-43
2022/10/20 04:29:42;;;;;;;56.90;20.73;;;;;;;9.31;100.00;101238.72;5007384;28;20494;-43
2022/10/20 04:32:08;;;;;;;47.47;21.38;;;;;;;9.33;100.00;101236.72;5006465;28;20045;-42
2022/10/20 04:34:33;;;;;;;44.58;20.73;;;;;;;9.33;100.00;101242.09;5007922;28;20116;-42
2022/10/20 04:36:59;;;;;;;46.00;20.98;;;;;;;9.31;100.00;101230.66;5005853;28;20062;-43
2022/10/20 04:39:24;;;;;;;47.75;19.73;;;;;;;9.34;100.00;101240.25;5007629;28;20064;-42
2022/10/20 04:41:50;;;;;;;56.15;22.08;;;;;;;9.30;100.00;101250.50;5007614;28;20095;-41
2022/10/20 04:44:15;;;;;;;60.85;22.73;;;;;;;9.29;100.00;101259.53;4985157;28;20038;-42
2022/10/20 04:46:41;;;;;;;50.13;23.90;;;;;;;9.32;100.00;101258.38;5003009;28;20042;-43
2022/10/20 04:49:06;;;;;;;55.88;23.00;;;;;;;9.33;100.00;101252.84;5010184;28;20388;-43
2022/10/20 04:51:33;;;;;;;54.85;23.00;;;;;;;9.35;100.00;101268.81;5006827;28;20042;-43
2022/10/20 04:53:58;;;;;;;62.75;23.27;;;;;;;9.29;100.00;101275.66;5009974;28;20022;-43
2022/10/20 04:56:24;;;;;;;57.70;25.10;;;;;;;9.24;100.00;101267.22;5010582;28;20512;-43
2022/10/20 04:58:50;;;;;;;57.30;22.98;;;;;;;9.25;100.00;101266.25;5008308;28;20389;-43
2022/10/20 05:01:16;;;;;;;58.30;25.38;;;;;;;9.26;100.00;101242.91;5009314;28;20527;-43
2022/10/20 05:03:42;;;;;;;55.17;24.13;;;;;;;9.32;100.00;101227.00;5009148;28;20029;-44
2022/10/20 05:06:08;;;;;;;55.28;24.20;;;;;;;9.37;100.00;101205.84;5008826;28;20080;-43
2022/10/20 05:08:34;;;;;;;66.43;25.42;;;;;;;9.44;100.00;101190.72;5009711;28;20045;-43
2022/10/20 05:10:59;;;;;;;65.45;25.30;;;;;;;9.42;100.00;101195.41;5009857;28;20551;-43
2022/10/20 05:13:25;;;;;;;62.30;23.80;;;;;;;9.42;100.00;101203.47;5009011;28;20116;-42
2022/10/20 05:15:53;;;;;;;65.28;26.85;;;;;;;9.40;100.00;101208.22;5009377;28;20088;-43
2022/10/20 05:18:19;;;;;;;53.35;24.40;;;;;;;9.37;100.00;101197.78;5010310;28;20022;-42
2022/10/20 05:20:44;;;;;;;62.25;25.38;;;;;;;9.47;100.00;101186.88;5009914;28;20532;-43
2022/10/20 05:23:09;;;;;;;55.33;25.85;;;;;;;9.38;100.00;101198.63;5009228;28;20440;-41
2022/10/20 05:25:36;;;;;;;64.85;25.80;;;;;;;9.39;100.00;101190.38;5010045;28;20465;-44
2022/10/20 05:28:01;;;;;;;56.22;25.17;;;;;;;9.34;100.00;101192.72;5010198;28;20381;-43
2022/10/20 05:30:27;;;;;;;67.07;26.67;;;;;;;9.35;100.00;101196.28;5010151;28;20235;-44
2022/10/20 05:32:52;;;;;;;60.95;25.23;;;;;;;9.38;100.00;101186.03;5009596;28;20064;-43
2022/10/20 05:35:18;;;;;;;59.45;24.95;;;;;;;9.43;100.00;101186.38;5008709;28;20106;-42
2022/10/20 05:37:43;;;;;;;57.15;25.33;;;;;;;9.52;100.00;101186.38;5008086;28;20030;-43
2022/10/20 05:40:09;;;;;;;69.70;26.70;;;;;;;9.50;100.00;101173.09;5010167;28;20522;-43
2022/10/20 05:42:35;;;;;;;64.35;25.27;;;;;;;9.50;100.00;101169.59;5009753;28;20105;-42
2022/10/20 05:45:00;;;;;;;69.53;24.48;;;;;;;9.58;100.00;101156.16;5010020;28;20069;-43
2022/10/20 05:47:25;;;;;;;63.05;26.40;;;;;;;9.58;100.00;101150.78;5009943;28;20026;-43
2022/10/20 05:49:51;;;;;;;63.22;24.50;;;;;;;9.55;100.00;101140.38;5010178;28;20188;-43
2022/10/20 05:52:16;;;;;;;59.28;26.00;;;;;;;9.53;100.00;101145.94;5013069;28;20396;-45
2022/10/20 05:54:42;;;;;;;65.03;26.30;;;;;;;9.51;100.00;101157.84;5011414;28;20484;-43
2022/10/20 05:57:07;;;;;;;61.42;26.05;;;;;;;9.49;100.00;101149.09;5013237;28;20026;-42
2022/10/20 05:59:32;;;;;;;61.42;26.60;;;;;;;9.48;100.00;101155.47;5013614;28;20057;-43
2022/10/20 06:01:57;;;;;;;68.40;28.83;;;;;;;9.45;100.00;101162.00;5012783;28;20026;-44
2022/10/20 06:04:23;;;;;;;70.18;26.08;;;;;;;9.47;100.00;101164.53;5012820;28;20486;-43
2022/10/20 06:06:49;;;;;;;66.85;26.92;;;;;;;9.51;100.00;101158.69;5012853;28;20080;-43
2022/10/20 06:09:16;;;;;;;71.90;27.73;;;;;;;9.54;100.00;101161.03;5013080;28;20175;-43
2022/10/20 06:11:41;;;;;;;67.55;26.42;;;;;;;9.52;100.00;101156.81;5012771;28;20159;-46
2022/10/20 06:14:08;;;;;;;64.93;26.30;;;;;;;9.53;100.00;101156.69;5013105;28;20125;-43
2022/10/20 06:16:33;;;;;;;69.95;27.98;;;;;;;9.51;100.00;101165.91;5023798;28;20060;-42
2022/10/20 06:18:59;;;;;;;64.82;26.33;;;;;;;9.58;100.00;101153.47;5033003;28;20090;-43
2022/10/20 06:21:29;;;;;;;67.65;27.85;;;;;;;9.53;100.00;101148.63;5015738;28;20070;-45
2022/10/20 06:23:57;;;;;;;60.65;25.50;;;;;;;9.63;100.00;101143.03;5011758;28;20034;-42
2022/10/20 06:26:24;;;;;;;64.38;25.63;;;;;;;9.66;100.00;101148.09;5012769;28;20014;-41
2022/10/20 06:28:54;;;;;;;66.23;27.03;;;;;;;9.67;100.00;101136.34;5013122;28;20037;-43
2022/10/20 06:31:30;;;;;;;56.75;26.38;;;;;;;9.72;100.00;101134.00;5025718;28;20033;-43
2022/10/20 06:33:56;;;;;;;63.70;27.25;;;;;;;9.70;100.00;101159.34;5024824;28;20119;-43
2022/10/20 06:36:22;;;;;;;70.85;27.80;;;;;;;9.66;100.00;101169.56;5013237;28;20034;-43
2022/10/20 06:38:51;;;;;;;66.05;27.77;;;;;;;9.66;100.00;101173.13;5012847;28;20408;-42
2022/10/20 06:41:17;;;;;;;64.93;25.52;;;;;;;9.68;100.00;101167.56;5012501;28;20022;-43
2022/10/20 06:43:43;;;;;;;61.95;27.13;;;;;;;9.72;100.00;101160.88;5027151;28;20097;-45
2022/10/20 06:46:15;;;;;;;66.90;26.67;;;;;;;9.82;100.00;101147.22;5032194;28;20021;-43
2022/10/20 06:48:40;;;;;;;69.70;28.17;;;;;;;9.82;100.00;101148.09;5032200;28;20045;-44
2022/10/20 06:51:09;;;;;;;67.15;28.15;;;;;;;9.83;100.00;101151.63;5032016;28;20038;-44
2022/10/20 06:53:35;;;;;;;71.57;25.90;;;;;;;9.86;100.00;101140.53;5032333;28;20393;-44
2022/10/20 06:56:02;;;;;;;61.65;25.48;;;;;;;9.92;100.00;101149.75;5032305;28;20029;-44
2022/10/20 06:58:28;;;;;;;65.43;26.98;;;;;;;9.95;100.00;101141.34;5032087;28;20022;-44
2022/10/20 07:01:17;;;;;;;65.68;26.52;;;;;;;9.96;100.00;101132.28;5031942;28;20104;-43
2022/10/20 07:03:44;;;;;;;63.28;24.77;;;;;;;9.98;100.00;101135.63;5031922;28;20492;-43
2022/10/20 07:06:13;;;;;;;60.43;26.10;;;;;;;10.00;100.00;101130.91;5028163;28;20022;-43
2022/10/20 07:08:38;;;;;;;65.65;28.15;;;;;;;10.01;100.00;101130.75;5012159;28;20507;-43
2022/10/20 07:11:07;;;;;;;62.45;27.05;;;;;;;10.00;100.00;101136.28;5012347;28;20040;-42
2022/10/20 07:13:33;;;;;;;60.20;27.65;;;;;;;9.97;100.00;101133.94;5011964;28;20140;-43
2022/10/20 07:15:59;;;;;;;71.05;28.45;;;;;;;10.00;100.00;101130.91;5011734;28;20033;-42
2022/10/20 07:18:26;;;;;;;60.60;26.52;;;;;;;10.03;100.00;101127.88;5011802;28;20408;-43
2022/10/20 07:21:00;;;;;;;66.07;27.23;;;;;;;10.02;100.00;101126.22;5010507;28;20080;-45
2022/10/20 07:23:26;;;;;;;73.30;28.35;;;;;;;10.06;100.00;101123.00;5011378;28;20488;-43
2022/10/20 07:25:59;;;;;;;73.78;28.70;;;;;;;10.18;100.00;101126.16;5011453;28;20049;-43
2022/10/20 07:28:24;;;;;;;70.72;28.42;;;;;;;10.19;100.00;101127.00;5011741;28;20025;-44
2022/10/20 07:30:49;;;;;;;65.45;24.98;;;;;;;10.20;100.00;101117.94;5018462;28;20026;-44
2022/10/20 07:33:15;;;;;;;70.20;26.38;;;;;;;10.28;100.00;101113.38;5031450;28;20022;-42
2022/10/20 07:35:40;;;;;;;55.13;25.27;;;;;;;10.35;100.00;101124.31;5012897;28;20026;-43
2022/10/20 07:38:06;;;;;;;58.75;24.77;;;;;;;10.30;100.00;101103.31;5011401;28;20035;-45
2022/10/20 07:40:31;;;;;;;57.90;25.08;;;;;;;10.31;100.00;101110.34;5011881;28;20113;-44
2022/10/20 07:42:56;;;;;;;61.00;26.23;;;;;;;10.29;100.00;101120.47;5011565;28;20073;-43
2022/10/20 07:45:22;;;;;;;57.95;26.02;;;;;;;10.29;100.00;101108.84;5011976;28;20018;-43
2022/10/20 07:47:47;;;;;;;70.80;28.25;;;;;;;10.29;100.00;101115.09;5010337;28;20046;-43
2022/10/20 07:50:12;;;;;;;58.22;26.58;;;;;;;10.37;100.00;101121.44;5011544;28;20026;-44
2022/10/20 07:52:38;;;;;;;54.33;26.20;;;;;;;10.38;100.00;101132.03;5011352;28;20109;-43
2022/10/20 07:55:04;;;;;;;69.18;26.08;;;;;;;10.36;100.00;101122.47;5011426;28;20083;-43
2022/10/20 07:57:30;;;;;;;66.85;26.27;;;;;;;10.44;100.00;101127.81;5011062;28;20073;-45
2022/10/20 07:59:55;;;;;;;67.75;25.98;;;;;;;10.50;100.00;101136.00;5011480;28;20056;-43
2022/10/20 08:02:22;;;;;;;60.00;25.90;;;;;;;10.58;100.00;101137.00;5011522;28;20057;-45
2022/10/20 08:04:48;;;;;;;63.78;26.58;;;;;;;10.65;100.00;101129.91;5011519;28;20032;-43
2022/10/20 08:07:13;;;;;;;63.20;26.08;;;;;;;10.64;100.00;101129.06;5010980;28;20026;-43
2022/10/20 08:09:38;;;;;;;53.72;25.30;;;;;;;10.70;100.00;101124.84;5011203;28;20525;-42
2022/10/20 08:12:04;;;;;;;65.05;26.15;;;;;;;10.74;100.00;101127.00;5011336;28;20018;-43
2022/10/20 08:14:32;;;;;;;61.10;26.30;;;;;;;10.75;100.00;101122.44;5011058;28;20037;-44
2022/10/20 08:16:58;;;;;;;65.25;26.50;;;;;;;10.79;100.00;101128.31;5011445;28;20076;-43
2022/10/20 08:19:23;;;;;;;53.97;25.67;;;;;;;10.79;100.00;101113.00;5009698;28;20436;-42
2022/10/20 08:21:48;;;;;;;60.00;25.20;;;;;;;10.92;100.00;101112.41;5011132;28;20032;-43
2022/10/20 08:24:14;;;;;;;57.95;25.48;;;;;;;10.94;100.00;101107.69;5011340;28;20080;-43
2022/10/20 08:26:39;;;;;;;61.53;25.88;;;;;;;10.97;100.00;101110.88;5009347;28;20030;-43
2022/10/20 08:29:05;;;;;;;60.47;26.48;;;;;;;10.95;100.00;101102.16;5011040;28;20061;-43
2022/10/20 08:31:30;;;;;;;56.65;24.95;;;;;;;10.98;100.00;101098.25;5009654;28;20033;-42
2022/10/20 08:33:56;;;;;;;61.97;25.95;;;;;;;11.07;100.00;101099.88;5010924;28;20025;-43
2022/10/20 08:36:21;;;;;;;59.92;25.55;;;;;;;11.13;100.00;101101.84;5011016;28;20034;-43
2022/10/20 08:38:47;;;;;;;54.92;25.95;;;;;;;11.16;100.00;101090.72;5010759;28;20036;-43
2022/10/20 08:41:20;;;;;;;66.60;25.17;;;;;;;11.24;100.00;101083.56;5010844;28;20054;-43
2022/10/20 08:43:48;;;;;;;62.35;25.30;;;;;;;11.34;100.00;101089.56;5009375;28;20026;-43
2022/10/20 08:46:15;;;;;;;53.90;25.27;;;;;;;11.35;100.00;101083.19;5010842;28;20030;-43
2022/10/20 08:48:41;;;;;;;50.25;23.13;;;;;;;11.45;100.00;101078.34;5008986;28;20516;-42
2022/10/20 08:51:14;;;;;;;55.97;25.60;;;;;;;11.49;100.00;101076.97;5009537;28;20406;-43
2022/10/20 08:53:40;;;;;;;56.20;24.80;;;;;;;11.53;100.00;101072.91;5009484;28;20029;-42
2022/10/20 08:56:08;;;;;;;63.67;24.27;;;;;;;11.52;100.00;101071.22;5010701;28;20412;-43
2022/10/20 08:58:33;;;;;;;53.78;23.65;;;;;;;11.51;100.00;101077.63;5009265;28;20026;-43
2022/10/20 09:00:59;;;;;;;55.92;26.08;;;;;;;11.64;100.00;101075.16;5010696;28;20029;-43
2022/10/20 09:03:30;;;;;;;57.28;25.40;;;;;;;11.73;100.00;101073.22;5010816;28;20046;-42
2022/10/20 09:06:21;;;;;;;56.67;25.27;;;;;;;11.81;100.00;101074.97;5010668;28;20511;-43
2022/10/20 09:08:47;;;;;;;54.03;25.27;;;;;;;11.75;100.00;101073.03;5009075;28;20042;-42
2022/10/20 09:11:20;;;;;;;56.63;25.92;;;;;;;11.87;100.00;101063.47;5009623;28;20029;-44
2022/10/20 09:13:45;;;;;;;49.38;23.25;;;;;;;11.93;100.00;101061.91;4992844;28;20033;-50
2022/10/20 09:16:22;;;;;;;59.92;24.85;;;;;;;11.90;100.00;101052.34;5010560;28;20033;-43
2022/10/20 09:19:18;;;;;;;52.20;23.80;;;;;;;11.89;100.00;101047.97;5009124;28;20030;-43
2022/10/20 09:21:45;;;;;;;54.90;24.08;;;;;;;11.95;100.00;101043.69;5009228;28;20026;-42
2022/10/20 09:24:10;;;;;;;50.45;23.40;;;;;;;12.02;100.00;101031.97;5009143;28;20037;-42
2022/10/20 09:26:46;;;;;;;50.83;24.13;;;;;;;12.10;100.00;101024.81;4995962;28;20014;-42
2022/10/20 09:29:17;;;;;;;56.55;22.85;;;;;;;12.03;100.00;101024.69;5012435;28;20096;-42
2022/10/20 09:31:48;;;;;;;60.95;23.95;;;;;;;12.06;100.00;101030.56;5014318;28;20026;-44
2022/10/20 09:34:29;;;;;;;51.30;25.10;;;;;;;12.07;100.00;101016.03;5013960;28;20030;-42
2022/10/20 09:37:00;;;;;;;51.30;23.30;;;;;;;12.07;100.00;101007.13;5012913;28;20033;-43
2022/10/20 09:39:27;;;;;;;56.08;24.30;;;;;;;12.06;100.00;101022.47;5012378;28;20113;-42
2022/10/20 09:42:11;;;;;;;53.85;24.02;;;;;;;12.15;100.00;101016.97;5012536;28;20025;-43
2022/10/20 09:45:07;;;;;;;60.17;24.85;;;;;;;12.19;100.00;101015.56;5012561;28;20396;-42
2022/10/20 09:47:33;;;;;;;55.47;24.70;;;;;;;12.15;100.00;101034.00;5013909;28;20048;-44
2022/10/20 09:50:00;;;;;;;52.42;23.23;;;;;;;12.21;100.00;101038.63;5013631;28;20022;-43
2022/10/20 09:52:43;;;;;;;57.90;25.00;;;;;;;12.21;100.00;101045.91;5013763;28;20044;-43
2022/10/20 09:55:23;;;;;;;54.58;24.30;;;;;;;12.25;100.00;101041.81;5012342;28;20077;-43
2022/10/20 09:57:49;;;;;;;53.25;23.58;;;;;;;12.26;100.00;101025.41;5013633;28;20032;-42
2022/10/20 10:00:24;;;;;;;50.03;23.42;;;;;;;12.34;100.00;100999.34;5013288;28;20381;-42
2022/10/20 10:03:18;;;;;;;45.35;22.55;;;;;;;12.45;100.00;101015.03;5013807;28;20037;-42
2022/10/20 10:05:44;;;;;;;54.70;24.40;;;;;;;12.48;100.00;101017.38;5013451;28;20482;-42
2022/10/20 10:08:14;;;;;;;52.28;24.85;;;;;;;12.52;100.00;101014.09;5013204;28;20060;-43
2022/10/20 10:10:39;;;;;;;57.72;24.25;;;;;;;12.58;100.00;101019.75;5012039;28;20034;-43
2022/10/20 10:13:05;;;;;;;60.30;23.25;;;;;;;12.61;100.00;101012.13;5013303;28;20040;-43
2022/10/20 10:15:32;;;;;;;56.80;24.88;;;;;;;12.66;100.00;101003.44;5013023;28;20044;-43
2022/10/20 10:17:58;;;;;;;48.92;24.17;;;;;;;12.68;100.00;100990.59;5011775;28;20028;-44
2022/10/20 10:20:27;;;;;;;57.15;24.67;;;;;;;12.70;100.00;100988.53;5013016;28;20030;-42
2022/10/20 10:23:26;;;;;;;54.70;22.25;;;;;;;12.71;100.00;100987.50;5011872;28;20037;-43
2022/10/20 10:25:52;;;;;;;67.90;24.92;;;;;;;12.71;100.00;100964.03;5012857;28;20045;-43
2022/10/20 10:28:29;;;;;;;60.67;25.77;;;;;;;12.72;100.00;100965.72;5013164;28;20378;-43
2022/10/20 10:31:21;;;;;;;53.20;25.02;;;;;;;12.72;100.00;100949.50;5012947;28;20033;-44
2022/10/20 10:33:48;;;;;;;52.47;25.52;;;;;;;12.77;100.00;100951.66;5012899;28;20053;-43
2022/10/20 10:36:19;;;;;;;60.40;25.83;;;;;;;12.82;100.00;100970.81;5011928;28;20026;-43
2022/10/20 10:38:44;;;;;;;55.35;26.75;;;;;;;12.81;100.00;100969.13;5011432;28;20436;-42
2022/10/20 10:41:25;;;;;;;53.97;25.42;;;;;;;12.83;100.00;100950.84;5012773;28;20042;-43
2022/10/20 10:44:05;;;;;;;58.30;26.75;;;;;;;12.89;100.00;100943.84;5012965;28;20080;-43
2022/10/20 10:46:36;;;;;;;58.38;27.50;;;;;;;13.02;100.00;100924.22;5012447;28;20167;-44
2022/10/20 10:49:33;;;;;;;59.55;25.85;;;;;;;13.09;100.00;100930.50;5012513;28;20030;-43
2022/10/20 10:52:03;;;;;;;62.53;26.50;;;;;;;13.12;100.00;100935.50;5007808;28;20542;-43
2022/10/20 10:54:35;;;;;;;55.88;26.75;;;;;;;13.10;100.00;100933.00;5011031;28;20544;-42
2022/10/20 10:57:05;;;;;;;56.53;25.30;;;;;;;13.16;100.00;100934.06;5012554;28;20026;-43
2022/10/20 10:59:35;;;;;;;54.80;25.80;;;;;;;13.19;100.00;100944.47;5020992;28;20250;-42
2022/10/20 11:02:22;;;;;;;60.67;25.90;;;;;;;13.23;100.00;100953.88;5002763;28;20600;-45
2022/10/20 11:05:14;;;;;;;57.97;25.55;;;;;;;13.27;100.00;100957.91;5003528;28;20037;-43
2022/10/20 11:07:39;;;;;;;58.55;26.25;;;;;;;13.31;100.00;100953.75;4992920;28;20414;-42
2022/10/20 11:10:46;;;;;;;55.42;24.80;;;;;;;13.46;100.00;100953.66;4992793;28;20065;-43
2022/10/20 11:13:36;;;;;;;51.87;24.67;;;;;;;13.48;100.00;100965.13;4949207;28;20192;-43
2022/10/20 11:16:16;;;;;;;56.72;26.25;;;;;;;13.45;100.00;100970.91;4991190;28;20304;-44
2022/10/20 11:19:03;;;;;;;57.25;25.95;;;;;;;13.42;100.00;100973.16;4992517;28;20038;-41